Time;durP1;ratioP1;P1;durP2;ratioP2;P2;SDS_P1;SDS_P2;PMS_P1;PMS_P2;Temp;Humidity;BMP_temperature;BMP_pressure;BME280_temperature;BME280_humidity;BME280_pressure;Samples;Min_cycle;Max_cycle;Signal;HPM_P1;HPM_P2
2023/05/03 00:00:45;;;;;;;8.80;3.20;;;;;;;;;;5082265;28;20044;-82
2023/05/03 00:03:12;;;;;;;7.60;2.67;;;;;;;;;;5066485;28;20049;-81
2023/05/03 00:05:38;;;;;;;9.73;2.90;;;;;;;;;;5065901;28;20063;-82
2023/05/03 00:08:04;;;;;;;9.98;3.20;;;;;;;;;;5065856;28;20064;-83
2023/05/03 00:10:30;;;;;;;9.05;2.95;;;;;;;;;;5083837;28;20090;-83
2023/05/03 00:12:56;;;;;;;8.55;2.75;;;;;;;;;;5087043;28;20090;-81
2023/05/03 00:15:22;;;;;;;10.60;2.80;;;;;;;;;;5072057;28;20045;-82
2023/05/03 00:17:48;;;;;;;11.18;2.97;;;;;;;;;;5077001;28;20051;-83
2023/05/03 00:20:14;;;;;;;9.30;3.10;;;;;;;;;;5083779;28;20082;-82
2023/05/03 00:22:41;;;;;;;9.95;3.70;;;;;;;;;;5083829;28;20456;-82
2023/05/03 00:25:08;;;;;;;9.30;3.50;;;;;;;;;;5082025;28;20045;-83
2023/05/03 00:27:35;;;;;;;9.50;3.30;;;;;;;;;;5080458;28;20044;-83
2023/05/03 00:30:01;;;;;;;8.20;3.15;;;;;;;;;;5083516;28;20048;-82
2023/05/03 00:32:27;;;;;;;11.98;3.08;;;;;;;;;;5081629;28;20097;-82
2023/05/03 00:34:56;;;;;;;8.95;3.10;;;;;;;;;;5081779;28;20063;-82
2023/05/03 00:37:23;;;;;;;9.90;2.85;;;;;;;;;;5082543;28;20059;-82
2023/05/03 00:39:49;;;;;;;9.75;2.83;;;;;;;;;;5082788;28;20032;-82
2023/05/03 00:42:15;;;;;;;7.53;2.75;;;;;;;;;;5083118;28;20123;-83
2023/05/03 00:44:41;;;;;;;8.20;2.67;;;;;;;;;;5081461;28;20040;-83
2023/05/03 00:47:08;;;;;;;7.13;2.30;;;;;;;;;;5082840;28;20044;-81
2023/05/03 00:49:34;;;;;;;9.32;2.90;;;;;;;;;;5082358;28;20036;-83
2023/05/03 00:52:01;;;;;;;8.40;2.28;;;;;;;;;;5081482;28;20055;-84
2023/05/03 00:54:27;;;;;;;8.55;2.50;;;;;;;;;;5081151;28;20048;-82
2023/05/03 00:56:55;;;;;;;7.10;2.95;;;;;;;;;;5062736;28;20468;-82
2023/05/03 00:59:21;;;;;;;9.18;2.85;;;;;;;;;;5071804;28;20033;-83
2023/05/03 01:01:51;;;;;;;6.40;2.65;;;;;;;;;;5083158;28;20113;-82
2023/05/03 01:04:17;;;;;;;8.18;2.80;;;;;;;;;;5082309;28;20045;-83
2023/05/03 01:07:04;;;;;;;6.95;2.65;;;;;;;;;;5065827;28;20056;-83
2023/05/03 01:09:38;;;;;;;6.82;2.47;;;;;;;;;;5080380;28;20514;-82
2023/05/03 01:12:12;;;;;;;5.90;2.50;;;;;;;;;;5082622;28;20048;-82
2023/05/03 01:14:49;;;;;;;7.82;3.20;;;;;;;;;;5083153;28;20037;-82
2023/05/03 01:17:15;;;;;;;7.80;2.55;;;;;;;;;;5081385;28;20121;-82
2023/05/03 01:19:53;;;;;;;8.60;2.67;;;;;;;;;;5080663;28;20051;-82
2023/05/03 01:22:38;;;;;;;5.15;2.20;;;;;;;;;;5075942;28;20036;-82
2023/05/03 01:25:11;;;;;;;8.25;2.40;;;;;;;;;;5078865;28;20051;-84
2023/05/03 01:27:37;;;;;;;7.90;2.38;;;;;;;;;;5082877;28;20043;-82
2023/05/03 01:30:10;;;;;;;5.63;2.50;;;;;;;;;;5081256;28;20056;-82
2023/05/03 01:32:45;;;;;;;8.60;2.88;;;;;;;;;;5082314;28;20106;-81
2023/05/03 01:35:26;;;;;;;7.43;2.50;;;;;;;;;;5082602;28;20054;-83
2023/05/03 01:37:54;;;;;;;7.13;2.78;;;;;;;;;;5080701;28;20045;-82
2023/05/03 01:40:22;;;;;;;10.68;2.72;;;;;;;;;;5080942;28;20394;-82
2023/05/03 01:42:48;;;;;;;10.95;2.50;;;;;;;;;;5083248;28;20045;-82
2023/05/03 01:45:15;;;;;;;12.25;3.05;;;;;;;;;;5082178;28;20055;-82
2023/05/03 01:47:41;;;;;;;7.57;2.65;;;;;;;;;;5082346;28;20086;-82
2023/05/03 01:50:07;;;;;;;7.05;2.47;;;;;;;;;;5081956;28;20036;-82
2023/05/03 01:52:33;;;;;;;8.38;2.30;;;;;;;;;;5080211;28;20053;-82
2023/05/03 01:55:00;;;;;;;7.93;2.33;;;;;;;;;;5080419;28;20051;-83
2023/05/03 01:57:26;;;;;;;8.18;2.42;;;;;;;;;;5080671;28;20043;-83
2023/05/03 01:59:52;;;;;;;7.30;2.67;;;;;;;;;;5080816;28;20044;-82
2023/05/03 02:02:18;;;;;;;7.03;2.33;;;;;;;;;;5082477;28;20040;-82
2023/05/03 02:04:44;;;;;;;8.40;2.45;;;;;;;;;;5084365;28;20048;-81
2023/05/03 02:07:10;;;;;;;9.27;2.65;;;;;;;;;;5083108;28;20118;-82
2023/05/03 02:09:36;;;;;;;7.78;2.50;;;;;;;;;;5083535;28;20037;-82
2023/05/03 02:12:02;;;;;;;8.57;2.72;;;;;;;;;;5082577;28;20540;-86
2023/05/03 02:14:28;;;;;;;7.03;2.70;;;;;;;;;;5081709;28;20048;-83
2023/05/03 02:16:54;;;;;;;8.43;2.55;;;;;;;;;;5081027;28;20380;-83
2023/05/03 02:19:20;;;;;;;7.07;2.28;;;;;;;;;;5074897;28;20407;-82
2023/05/03 02:21:47;;;;;;;9.73;2.88;;;;;;;;;;5080499;28;20051;-83
2023/05/03 02:24:13;;;;;;;9.85;2.90;;;;;;;;;;5080088;28;20104;-82
2023/05/03 02:26:39;;;;;;;10.90;2.80;;;;;;;;;;5080881;28;20085;-83
2023/05/03 02:29:06;;;;;;;6.93;2.60;;;;;;;;;;5080135;28;20049;-81
2023/05/03 02:31:32;;;;;;;9.13;2.72;;;;;;;;;;5081063;28;20100;-81
2023/05/03 02:33:58;;;;;;;8.93;2.70;;;;;;;;;;5079664;28;20052;-83
2023/05/03 02:36:25;;;;;;;9.27;2.83;;;;;;;;;;5081091;28;20059;-82
2023/05/03 02:38:51;;;;;;;8.10;2.85;;;;;;;;;;5081183;28;20063;-83
2023/05/03 02:41:17;;;;;;;7.60;2.70;;;;;;;;;;5081070;28;20044;-82
2023/05/03 02:43:43;;;;;;;10.05;4.20;;;;;;;;;;5081217;28;20044;-83
2023/05/03 02:46:09;;;;;;;7.32;3.97;;;;;;;;;;5082092;28;20052;-82
2023/05/03 02:48:35;;;;;;;8.48;4.40;;;;;;;;;;5080809;28;20037;-82
2023/05/03 02:51:02;;;;;;;9.15;3.70;;;;;;;;;;5063473;28;20049;-83
2023/05/03 02:53:28;;;;;;;9.35;3.53;;;;;;;;;;5077073;28;20044;-82
2023/05/03 02:55:54;;;;;;;6.75;3.28;;;;;;;;;;5079617;28;20076;-82
2023/05/03 02:58:20;;;;;;;7.97;2.92;;;;;;;;;;5078316;28;20125;-81
2023/05/03 03:00:46;;;;;;;5.07;2.85;;;;;;;;;;5080051;28;20051;-81
2023/05/03 03:03:12;;;;;;;8.25;3.10;;;;;;;;;;5078553;28;20052;-82
2023/05/03 03:05:38;;;;;;;8.88;3.40;;;;;;;;;;5080250;28;20043;-83
2023/05/03 03:08:05;;;;;;;10.50;3.65;;;;;;;;;;5079055;28;20067;-83
2023/05/03 03:10:31;;;;;;;8.88;3.25;;;;;;;;;;5078837;28;20040;-82
2023/05/03 03:12:57;;;;;;;7.43;3.28;;;;;;;;;;5079380;28;20162;-82
2023/05/03 03:15:23;;;;;;;10.88;3.63;;;;;;;;;;5078633;28;20056;-83
2023/05/03 03:17:51;;;;;;;10.70;3.58;;;;;;;;;;5079808;28;20044;-82
2023/05/03 03:20:17;;;;;;;7.30;3.15;;;;;;;;;;5077845;28;20094;-82
2023/05/03 03:22:44;;;;;;;6.95;2.88;;;;;;;;;;5081412;28;20051;-81
2023/05/03 03:25:10;;;;;;;8.63;3.33;;;;;;;;;;5078940;28;20044;-82
2023/05/03 03:27:36;;;;;;;7.90;3.38;;;;;;;;;;5074114;28;20044;-82
2023/05/03 03:30:02;;;;;;;7.07;3.10;;;;;;;;;;5078714;28;20040;-83
2023/05/03 03:32:29;;;;;;;10.30;3.90;;;;;;;;;;5082047;28;20036;-82
2023/05/03 03:34:55;;;;;;;10.63;2.97;;;;;;;;;;5085751;28;20044;-83
2023/05/03 03:37:22;;;;;;;8.27;3.88;;;;;;;;;;5084833;28;20403;-82
2023/05/03 03:39:48;;;;;;;8.48;4.03;;;;;;;;;;5080875;28;20053;-82
2023/05/03 03:42:14;;;;;;;8.90;3.63;;;;;;;;;;5085097;28;20055;-83
2023/05/03 03:44:40;;;;;;;7.32;3.30;;;;;;;;;;5085325;28;20037;-82
2023/05/03 03:47:06;;;;;;;8.25;3.35;;;;;;;;;;5084101;28;20041;-84
2023/05/03 03:49:32;;;;;;;8.95;3.30;;;;;;;;;;5083333;28;20098;-82
2023/05/03 03:51:59;;;;;;;8.27;3.10;;;;;;;;;;5084177;28;20063;-82
2023/05/03 03:54:25;;;;;;;8.43;3.35;;;;;;;;;;5082122;28;20510;-82
2023/05/03 03:56:51;;;;;;;8.48;3.35;;;;;;;;;;5080995;28;20057;-84
2023/05/03 03:59:17;;;;;;;7.55;3.33;;;;;;;;;;5090299;28;20059;-82
2023/05/03 04:01:43;;;;;;;8.80;3.20;;;;;;;;;;5084275;28;20033;-82
2023/05/03 04:04:09;;;;;;;6.50;3.25;;;;;;;;;;5084775;28;20064;-82
2023/05/03 04:06:35;;;;;;;8.85;3.40;;;;;;;;;;5084830;28;20040;-83
2023/05/03 04:09:02;;;;;;;7.47;3.15;;;;;;;;;;5085517;28;20040;-82
2023/05/03 04:11:28;;;;;;;8.80;3.50;;;;;;;;;;5088417;28;20541;-83
2023/05/03 04:13:54;;;;;;;10.60;3.90;;;;;;;;;;5085993;28;20448;-82
2023/05/03 04:16:20;;;;;;;9.35;3.60;;;;;;;;;;5087400;28;20051;-82
2023/05/03 04:18:46;;;;;;;9.10;3.50;;;;;;;;;;5067317;28;20108;-81
2023/05/03 04:21:12;;;;;;;11.25;3.42;;;;;;;;;;5072138;28;20044;-83
2023/05/03 04:23:39;;;;;;;12.18;3.75;;;;;;;;;;5087006;28;20052;-81
2023/05/03 04:26:05;;;;;;;8.90;3.75;;;;;;;;;;5086870;28;20052;-83
2023/05/03 04:28:31;;;;;;;9.05;3.50;;;;;;;;;;5086646;28;20040;-82
2023/05/03 04:30:58;;;;;;;12.05;3.78;;;;;;;;;;5067621;28;20066;-82
2023/05/03 04:33:27;;;;;;;9.45;3.45;;;;;;;;;;5083343;28;20502;-83
2023/05/03 04:35:53;;;;;;;11.75;3.70;;;;;;;;;;5086182;28;20041;-83
2023/05/03 04:38:20;;;;;;;9.68;3.30;;;;;;;;;;5084885;28;20097;-83
2023/05/03 04:40:46;;;;;;;10.13;3.95;;;;;;;;;;5084728;28;20044;-82
2023/05/03 04:43:12;;;;;;;7.65;3.63;;;;;;;;;;5081687;28;20055;-83
2023/05/03 04:45:38;;;;;;;8.45;3.58;;;;;;;;;;5081842;28;20103;-83
2023/05/03 04:48:05;;;;;;;7.55;3.95;;;;;;;;;;5081775;28;20047;-83
2023/05/03 04:50:31;;;;;;;9.02;3.80;;;;;;;;;;5082753;28;20123;-83
2023/05/03 04:52:58;;;;;;;10.43;3.72;;;;;;;;;;5079199;28;20051;-82
2023/05/03 04:55:24;;;;;;;10.77;3.78;;;;;;;;;;5081281;28;20093;-82
2023/05/03 04:57:50;;;;;;;9.32;3.70;;;;;;;;;;5081356;28;20048;-82
2023/05/03 05:00:16;;;;;;;11.57;3.85;;;;;;;;;;5078704;28;20040;-83
2023/05/03 05:02:42;;;;;;;8.93;3.70;;;;;;;;;;5079627;28;20040;-83
2023/05/03 05:05:09;;;;;;;8.57;3.50;;;;;;;;;;5081279;28;20045;-83
2023/05/03 05:07:35;;;;;;;9.30;3.80;;;;;;;;;;5081499;28;20037;-81
2023/05/03 05:10:01;;;;;;;9.82;3.70;;;;;;;;;;5081176;28;20054;-82
2023/05/03 05:12:27;;;;;;;11.23;3.65;;;;;;;;;;5080045;28;20043;-83
2023/05/03 05:14:53;;;;;;;9.32;4.25;;;;;;;;;;5081936;28;20105;-82
2023/05/03 05:17:20;;;;;;;7.80;3.60;;;;;;;;;;5082363;28;20449;-82
2023/05/03 05:19:46;;;;;;;8.18;4.38;;;;;;;;;;5081682;28;20059;-83
2023/05/03 05:22:12;;;;;;;10.68;4.70;;;;;;;;;;5080790;28;20048;-81
2023/05/03 05:24:38;;;;;;;10.88;4.05;;;;;;;;;;5080854;28;20522;-82
2023/05/03 05:27:05;;;;;;;7.15;4.18;;;;;;;;;;5081530;28;20103;-82
2023/05/03 05:29:31;;;;;;;9.20;4.13;;;;;;;;;;5073847;28;20518;-83
2023/05/03 05:31:58;;;;;;;9.50;4.15;;;;;;;;;;5073970;28;20052;-82
2023/05/03 05:34:25;;;;;;;6.65;3.75;;;;;;;;;;5075174;28;20282;-83
2023/05/03 05:36:51;;;;;;;11.48;4.60;;;;;;;;;;5071138;28;20097;-84
2023/05/03 05:39:18;;;;;;;7.05;4.03;;;;;;;;;;5071244;28;20087;-83
2023/05/03 05:41:44;;;;;;;7.40;4.18;;;;;;;;;;5071893;28;20093;-83
2023/05/03 05:44:12;;;;;;;9.80;4.32;;;;;;;;;;5072497;28;20118;-84
2023/05/03 05:46:38;;;;;;;9.38;4.65;;;;;;;;;;5072397;28;20056;-82
2023/05/03 05:49:04;;;;;;;6.25;3.92;;;;;;;;;;5071561;28;20479;-84
2023/05/03 05:51:30;;;;;;;9.98;4.43;;;;;;;;;;5065663;28;20072;-82
2023/05/03 05:53:57;;;;;;;10.52;4.32;;;;;;;;;;5077837;28;20048;-84
2023/05/03 05:56:23;;;;;;;8.35;3.97;;;;;;;;;;5073347;28;20036;-82
2023/05/03 05:58:49;;;;;;;9.63;4.13;;;;;;;;;;5075190;28;20044;-83
2023/05/03 06:01:15;;;;;;;9.07;4.30;;;;;;;;;;5074005;28;20075;-83
2023/05/03 06:03:41;;;;;;;12.15;4.82;;;;;;;;;;5074929;28;20052;-82
2023/05/03 06:06:08;;;;;;;10.48;4.10;;;;;;;;;;5073648;28;20049;-83
2023/05/03 06:08:34;;;;;;;13.98;4.35;;;;;;;;;;5072589;28;20040;-83
2023/05/03 06:11:01;;;;;;;11.02;4.55;;;;;;;;;;5074079;28;20059;-82
2023/05/03 06:13:27;;;;;;;9.52;4.75;;;;;;;;;;5072667;28;20099;-83
2023/05/03 06:15:53;;;;;;;9.48;4.50;;;;;;;;;;5078706;28;20052;-83
2023/05/03 06:18:19;;;;;;;13.68;4.35;;;;;;;;;;5066855;28;20049;-82
2023/05/03 06:20:49;;;;;;;15.45;4.93;;;;;;;;;;5069197;28;20110;-83
2023/05/03 06:23:15;;;;;;;8.68;4.35;;;;;;;;;;5082651;28;20083;-82
2023/05/03 06:25:41;;;;;;;11.07;4.45;;;;;;;;;;5082182;28;20037;-81
2023/05/03 06:28:07;;;;;;;9.50;4.22;;;;;;;;;;5094280;28;20066;-83
2023/05/03 06:30:34;;;;;;;10.70;3.33;;;;;;;;;;5078460;28;20058;-82
2023/05/03 06:33:00;;;;;;;8.48;3.40;;;;;;;;;;5068540;28;20075;-82
2023/05/03 06:35:26;;;;;;;9.68;3.60;;;;;;;;;;5080855;28;20041;-82
2023/05/03 06:37:52;;;;;;;18.10;4.90;;;;;;;;;;5078053;28;20048;-82
2023/05/03 06:40:18;;;;;;;8.30;2.00;;;;;;;;;;5081319;28;20049;-83
2023/05/03 06:42:44;;;;;;;7.85;2.42;;;;;;;;;;5081249;28;20060;-82
2023/05/03 06:45:10;;;;;;;5.50;1.60;;;;;;;;;;5081005;28;20124;-82
2023/05/03 06:47:36;;;;;;;8.13;2.03;;;;;;;;;;5080538;28;20036;-82
2023/05/03 06:50:02;;;;;;;7.93;2.45;;;;;;;;;;5079452;28;20398;-81
2023/05/03 06:52:28;;;;;;;8.02;2.35;;;;;;;;;;5081378;28;20057;-82
2023/05/03 06:54:54;;;;;;;6.18;2.42;;;;;;;;;;5081087;28;20048;-82
2023/05/03 06:57:21;;;;;;;4.65;2.10;;;;;;;;;;5089058;28;20038;-83
2023/05/03 06:59:47;;;;;;;7.22;1.95;;;;;;;;;;5095414;28;20077;-82
2023/05/03 07:02:13;;;;;;;8.50;2.13;;;;;;;;;;5093586;28;20040;-83
2023/05/03 07:04:39;;;;;;;4.93;2.20;;;;;;;;;;5085424;28;20045;-83
2023/05/03 07:07:05;;;;;;;7.35;2.58;;;;;;;;;;5081817;28;20044;-83
2023/05/03 07:09:35;;;;;;;7.45;2.25;;;;;;;;;;5080363;28;20048;-81
2023/05/03 07:12:02;;;;;;;4.78;1.63;;;;;;;;;;5081521;28;20047;-82
2023/05/03 07:14:28;;;;;;;7.05;2.08;;;;;;;;;;5080507;28;20104;-82
2023/05/03 07:16:54;;;;;;;7.30;1.63;;;;;;;;;;5081757;28;20479;-82
2023/05/03 07:19:20;;;;;;;8.40;2.40;;;;;;;;;;5078653;28;20075;-82
2023/05/03 07:21:46;;;;;;;6.75;1.90;;;;;;;;;;5081410;28;20391;-82
2023/05/03 07:24:12;;;;;;;8.45;1.98;;;;;;;;;;5081553;28;20383;-83
2023/05/03 07:26:38;;;;;;;5.18;1.63;;;;;;;;;;5081976;28;20154;-84
2023/05/03 07:29:05;;;;;;;5.30;1.67;;;;;;;;;;5078545;28;20060;-82
2023/05/03 07:31:31;;;;;;;6.70;1.60;;;;;;;;;;5080629;28;20041;-82
2023/05/03 07:33:57;;;;;;;7.18;2.13;;;;;;;;;;5081410;28;20041;-83
2023/05/03 07:36:23;;;;;;;7.55;1.98;;;;;;;;;;5078347;28;20051;-81
2023/05/03 07:38:49;;;;;;;8.88;2.30;;;;;;;;;;5075870;28;20496;-82
2023/05/03 07:41:15;;;;;;;6.45;1.52;;;;;;;;;;5064762;28;20055;-83
2023/05/03 07:43:42;;;;;;;6.05;1.45;;;;;;;;;;5070218;28;20052;-81
2023/05/03 07:46:08;;;;;;;7.53;2.28;;;;;;;;;;5081275;28;20045;-82
2023/05/03 07:48:34;;;;;;;7.47;1.58;;;;;;;;;;5080073;28;20192;-83
2023/05/03 07:51:00;;;;;;;7.50;2.10;;;;;;;;;;5081170;28;20068;-82
2023/05/03 07:53:26;;;;;;;8.75;2.15;;;;;;;;;;5084578;28;20064;-82
2023/05/03 07:55:55;;;;;;;5.25;1.40;;;;;;;;;;5083847;28;20077;-82
2023/05/03 07:58:21;;;;;;;9.27;3.70;;;;;;;;;;5081389;28;20056;-83
2023/05/03 08:00:47;;;;;;;5.80;1.48;;;;;;;;;;5077940;28;20055;-83
2023/05/03 08:03:13;;;;;;;9.07;2.10;;;;;;;;;;5078554;28;20055;-83
2023/05/03 08:05:40;;;;;;;5.85;1.60;;;;;;;;;;5079824;28;20124;-83
2023/05/03 08:08:07;;;;;;;11.70;1.98;;;;;;;;;;5078130;28;20051;-82
2023/05/03 08:10:36;;;;;;;5.22;1.50;;;;;;;;;;5077936;28;20472;-83
2023/05/03 08:13:02;;;;;;;6.15;1.30;;;;;;;;;;5078579;28;20055;-83
2023/05/03 08:15:28;;;;;;;4.57;1.67;;;;;;;;;;5095816;28;20048;-83
2023/05/03 08:17:55;;;;;;;6.28;1.60;;;;;;;;;;5080472;28;20056;-84
2023/05/03 08:20:21;;;;;;;6.20;1.40;;;;;;;;;;5086719;28;20074;-83
2023/05/03 08:22:47;;;;;;;5.13;1.58;;;;;;;;;;5086944;28;20059;-83
2023/05/03 08:25:15;;;;;;;8.45;2.80;;;;;;;;;;5087463;28;20044;-83
2023/05/03 08:27:41;;;;;;;11.27;5.82;;;;;;;;;;5085705;28;20067;-84
2023/05/03 08:30:08;;;;;;;5.90;1.70;;;;;;;;;;5082275;28;20037;-84
2023/05/03 08:32:34;;;;;;;5.03;1.40;;;;;;;;;;5084427;28;20097;-84
2023/05/03 08:35:00;;;;;;;4.28;1.58;;;;;;;;;;5084615;28;20045;-84
2023/05/03 08:37:26;;;;;;;7.57;1.92;;;;;;;;;;5085712;28;20090;-84
2023/05/03 08:39:52;;;;;;;7.75;1.67;;;;;;;;;;5083468;28;20113;-84
2023/05/03 08:42:19;;;;;;;4.20;1.38;;;;;;;;;;5085820;28;20040;-83
2023/05/03 08:44:49;;;;;;;9.48;1.60;;;;;;;;;;5079729;28;20064;-83
2023/05/03 08:47:16;;;;;;;5.95;1.60;;;;;;;;;;5085001;28;20123;-82
2023/05/03 08:49:45;;;;;;;4.38;1.40;;;;;;;;;;5085403;28;20051;-83
2023/05/03 08:52:14;;;;;;;7.10;1.73;;;;;;;;;;5082720;28;20440;-83
2023/05/03 08:54:40;;;;;;;6.00;1.50;;;;;;;;;;5082938;28;20113;-82
2023/05/03 08:57:10;;;;;;;7.82;1.65;;;;;;;;;;5082744;28;20052;-83
2023/05/03 08:59:46;;;;;;;6.90;1.65;;;;;;;;;;5081782;28;20041;-82
2023/05/03 09:02:14;;;;;;;5.50;1.40;;;;;;;;;;5082807;28;20372;-83
2023/05/03 09:04:40;;;;;;;8.63;1.90;;;;;;;;;;5082834;28;20052;-82
2023/05/03 09:07:14;;;;;;;5.68;1.80;;;;;;;;;;5080073;28;20513;-83
2023/05/03 09:09:41;;;;;;;8.80;1.80;;;;;;;;;;5077757;28;20045;-83
2023/05/03 09:12:08;;;;;;;6.05;1.40;;;;;;;;;;5081258;28;20048;-83
2023/05/03 09:14:44;;;;;;;6.57;2.15;;;;;;;;;;5081743;28;20067;-87
2023/05/03 09:17:18;;;;;;;8.20;2.45;;;;;;;;;;5077164;28;20051;-83
2023/05/03 09:19:54;;;;;;;7.00;2.05;;;;;;;;;;5080548;28;20056;-83
2023/05/03 09:22:22;;;;;;;8.57;2.65;;;;;;;;;;5079676;28;20049;-82
2023/05/03 09:24:52;;;;;;;7.90;1.83;;;;;;;;;;5078152;28;20451;-82
2023/05/03 09:27:20;;;;;;;8.27;1.87;;;;;;;;;;5081651;28;20499;-81
2023/05/03 09:29:47;;;;;;;6.97;2.08;;;;;;;;;;5080617;28;20119;-84
2023/05/03 09:32:13;;;;;;;6.22;2.03;;;;;;;;;;5082693;28;20119;-84
2023/05/03 09:34:39;;;;;;;6.32;1.65;;;;;;;;;;5069455;28;20048;-83
2023/05/03 09:37:05;;;;;;;6.00;1.85;;;;;;;;;;5083356;28;20161;-82
2023/05/03 09:39:32;;;;;;;8.07;1.90;;;;;;;;;;5083827;28;20036;-84
2023/05/03 09:41:59;;;;;;;4.82;1.55;;;;;;;;;;5083392;28;20046;-83
2023/05/03 09:44:41;;;;;;;7.03;1.77;;;;;;;;;;5083898;28;20052;-84
2023/05/03 09:47:07;;;;;;;6.03;1.60;;;;;;;;;;5083912;28;20048;-83
2023/05/03 09:49:35;;;;;;;5.38;1.55;;;;;;;;;;5081989;28;20051;-83
2023/05/03 09:52:01;;;;;;;6.65;1.65;;;;;;;;;;5081717;28;20135;-84
2023/05/03 09:54:30;;;;;;;5.43;1.70;;;;;;;;;;5082798;28;20048;-84
2023/05/03 09:56:56;;;;;;;7.05;1.80;;;;;;;;;;5083118;28;20048;-84
2023/05/03 09:59:22;;;;;;;15.15;7.55;;;;;;;;;;5078170;28;20067;-83
2023/05/03 10:01:50;;;;;;;8.02;2.42;;;;;;;;;;5083064;28;20044;-82
2023/05/03 10:04:20;;;;;;;6.90;1.60;;;;;;;;;;5084609;28;20044;-84
2023/05/03 10:06:49;;;;;;;4.63;1.70;;;;;;;;;;5082735;28;20094;-84
2023/05/03 10:09:22;;;;;;;6.72;2.00;;;;;;;;;;5082626;28;20051;-83
2023/05/03 10:11:48;;;;;;;8.13;1.77;;;;;;;;;;5084523;28;20063;-84
2023/05/03 10:14:15;;;;;;;5.45;1.75;;;;;;;;;;5084133;28;20045;-83
2023/05/03 10:16:44;;;;;;;7.95;1.63;;;;;;;;;;5082225;28;20044;-84
2023/05/03 10:19:15;;;;;;;3.67;1.33;;;;;;;;;;5066264;28;20067;-86
2023/05/03 10:21:44;;;;;;;8.07;1.90;;;;;;;;;;5084331;28;20037;-84
2023/05/03 10:24:15;;;;;;;6.22;1.70;;;;;;;;;;5081631;28;20044;-84
2023/05/03 10:26:46;;;;;;;11.35;4.28;;;;;;;;;;5086109;28;20041;-84
2023/05/03 10:29:31;;;;;;;13.02;7.25;;;;;;;;;;5092147;28;20044;-84
2023/05/03 10:31:57;;;;;;;8.63;3.90;;;;;;;;;;5088620;28;20486;-83
2023/05/03 10:34:24;;;;;;;7.57;2.40;;;;;;;;;;5083410;28;20049;-83
2023/05/03 10:36:54;;;;;;;5.82;1.70;;;;;;;;;;5083485;28;20121;-82
2023/05/03 10:39:20;;;;;;;5.18;1.80;;;;;;;;;;5084753;28;20044;-82
2023/05/03 10:42:03;;;;;;;4.93;1.80;;;;;;;;;;5078089;28;20040;-83
2023/05/03 10:44:48;;;;;;;7.90;2.10;;;;;;;;;;5082623;28;20078;-84
2023/05/03 10:47:18;;;;;;;9.00;2.03;;;;;;;;;;5082715;28;20464;-83
2023/05/03 10:49:44;;;;;;;7.88;2.90;;;;;;;;;;5081002;28;20051;-83
2023/05/03 10:52:29;;;;;;;7.50;2.70;;;;;;;;;;5064586;28;20080;-84
2023/05/03 10:54:55;;;;;;;5.63;1.90;;;;;;;;;;5083449;28;20041;-83
2023/05/03 10:57:26;;;;;;;7.75;1.90;;;;;;;;;;5082937;28;20090;-83
2023/05/03 10:59:52;;;;;;;6.15;2.10;;;;;;;;;;5080114;28;20041;-83
2023/05/03 11:02:21;;;;;;;6.22;2.22;;;;;;;;;;5082582;28;20124;-83
2023/05/03 11:04:48;;;;;;;6.07;2.00;;;;;;;;;;5078885;28;20044;-83
2023/05/03 11:07:21;;;;;;;6.28;2.10;;;;;;;;;;5082119;28;20471;-83
2023/05/03 11:09:47;;;;;;;6.63;1.83;;;;;;;;;;5081873;28;20059;-82
2023/05/03 11:12:13;;;;;;;6.22;2.00;;;;;;;;;;5077793;28;20067;-82
2023/05/03 11:14:41;;;;;;;7.80;2.10;;;;;;;;;;5082104;28;20070;-81
2023/05/03 11:17:07;;;;;;;6.47;2.20;;;;;;;;;;5081535;28;20040;-83
2023/05/03 11:19:34;;;;;;;8.55;2.55;;;;;;;;;;5080822;28;20036;-83
2023/05/03 11:22:00;;;;;;;12.43;2.50;;;;;;;;;;5075483;28;20051;-82
2023/05/03 11:24:27;;;;;;;6.72;1.85;;;;;;;;;;5090432;28;20429;-83
2023/05/03 11:26:53;;;;;;;4.53;1.88;;;;;;;;;;5081094;28;20044;-83
2023/05/03 11:29:20;;;;;;;7.15;2.20;;;;;;;;;;5081619;28;20432;-83
2023/05/03 11:31:46;;;;;;;6.75;1.80;;;;;;;;;;5079532;28;20097;-83
2023/05/03 11:34:14;;;;;;;6.93;1.85;;;;;;;;;;5096998;28;20041;-83
2023/05/03 11:36:41;;;;;;;6.13;2.20;;;;;;;;;;5082128;28;20052;-84
2023/05/03 11:39:08;;;;;;;5.70;2.03;;;;;;;;;;5081753;28;20483;-82
2023/05/03 11:41:34;;;;;;;6.78;1.95;;;;;;;;;;5080766;28;20124;-81
2023/05/03 11:44:00;;;;;;;5.93;2.08;;;;;;;;;;5081364;28;20131;-82
2023/05/03 11:46:28;;;;;;;6.97;2.28;;;;;;;;;;5080877;28;20041;-82
2023/05/03 11:48:54;;;;;;;8.10;2.40;;;;;;;;;;5070062;28;20112;-82
2023/05/03 11:51:21;;;;;;;6.65;2.00;;;;;;;;;;5061898;28;20053;-82
2023/05/03 11:53:48;;;;;;;5.90;2.00;;;;;;;;;;5084104;28;20056;-83
2023/05/03 11:56:16;;;;;;;5.32;2.00;;;;;;;;;;5085338;28;20045;-82
2023/05/03 11:58:55;;;;;;;7.57;2.20;;;;;;;;;;5084180;28;20052;-82
2023/05/03 12:01:22;;;;;;;6.10;2.20;;;;;;;;;;5082434;28;20037;-84
2023/05/03 12:03:52;;;;;;;6.00;2.00;;;;;;;;;;5085112;28;20092;-81
2023/05/03 12:06:18;;;;;;;4.78;2.10;;;;;;;;;;5082418;28;20044;-82
2023/05/03 12:08:44;;;;;;;5.25;2.20;;;;;;;;;;5082584;28;20041;-82
2023/05/03 12:11:10;;;;;;;7.13;2.33;;;;;;;;;;5084084;28;20175;-82
2023/05/03 12:13:37;;;;;;;7.35;2.30;;;;;;;;;;5064012;28;20048;-81
2023/05/03 12:16:04;;;;;;;7.55;2.10;;;;;;;;;;5081118;28;20680;-82
2023/05/03 12:18:49;;;;;;;7.05;2.00;;;;;;;;;;5082320;28;20102;-82
2023/05/03 12:21:15;;;;;;;6.43;2.28;;;;;;;;;;5084651;28;20044;-83
2023/05/03 12:23:42;;;;;;;5.95;2.05;;;;;;;;;;5085112;28;20056;-82
2023/05/03 12:26:08;;;;;;;6.15;2.30;;;;;;;;;;5084978;28;20059;-82
2023/05/03 12:28:34;;;;;;;5.78;1.88;;;;;;;;;;5084867;28;20044;-83
2023/05/03 12:31:00;;;;;;;8.25;2.28;;;;;;;;;;5083843;28;20127;-83
2023/05/03 12:33:26;;;;;;;4.95;2.22;;;;;;;;;;5084627;28;20405;-83
2023/05/03 12:35:53;;;;;;;6.00;1.90;;;;;;;;;;5086618;28;20049;-82
2023/05/03 12:38:19;;;;;;;6.35;1.77;;;;;;;;;;5086383;28;20518;-83
2023/05/03 12:40:45;;;;;;;6.30;2.10;;;;;;;;;;5084949;28;20422;-82
2023/05/03 12:43:12;;;;;;;6.57;2.30;;;;;;;;;;5084629;28;20048;-82
2023/05/03 12:45:38;;;;;;;7.57;2.22;;;;;;;;;;5083214;28;20040;-83
2023/05/03 12:48:04;;;;;;;6.05;2.20;;;;;;;;;;5098973;28;20049;-82
2023/05/03 12:50:30;;;;;;;6.10;2.05;;;;;;;;;;5082511;28;20055;-81
2023/05/03 12:52:56;;;;;;;5.00;1.92;;;;;;;;;;5082801;28;20067;-82
2023/05/03 12:55:23;;;;;;;5.93;2.00;;;;;;;;;;5082458;28;20044;-83
2023/05/03 12:57:49;;;;;;;6.72;2.20;;;;;;;;;;5082289;28;20096;-83
2023/05/03 13:00:16;;;;;;;7.43;2.17;;;;;;;;;;5082001;28;20040;-83
2023/05/03 13:02:43;;;;;;;5.95;2.20;;;;;;;;;;5081640;28;20052;-82
2023/05/03 13:05:09;;;;;;;5.85;1.83;;;;;;;;;;5093549;28;20060;-82
2023/05/03 13:07:35;;;;;;;7.82;2.28;;;;;;;;;;5079953;28;20037;-82
2023/05/03 13:10:01;;;;;;;6.57;1.80;;;;;;;;;;5082379;28;20122;-82
2023/05/03 13:12:29;;;;;;;8.18;2.03;;;;;;;;;;5081900;28;20616;-81
2023/05/03 13:14:55;;;;;;;7.05;2.00;;;;;;;;;;5079691;28;20048;-82
2023/05/03 13:17:22;;;;;;;5.88;1.90;;;;;;;;;;5081559;28;20076;-82
2023/05/03 13:19:48;;;;;;;6.78;2.08;;;;;;;;;;5080632;28;20063;-83
2023/05/03 13:22:15;;;;;;;6.07;1.98;;;;;;;;;;5081398;28;20059;-83
2023/05/03 13:24:41;;;;;;;7.65;1.90;;;;;;;;;;5078505;28;20400;-84
2023/05/03 13:27:09;;;;;;;6.43;1.95;;;;;;;;;;5065095;28;20041;-84
2023/05/03 13:29:35;;;;;;;6.28;1.92;;;;;;;;;;5072339;28;20047;-83
2023/05/03 13:32:01;;;;;;;7.03;2.10;;;;;;;;;;5076960;28;20055;-82
2023/05/03 13:34:28;;;;;;;5.63;2.00;;;;;;;;;;5083544;28;20490;-82
2023/05/03 13:36:54;;;;;;;7.07;2.45;;;;;;;;;;5080981;28;20469;-82
2023/05/03 13:39:20;;;;;;;6.30;2.05;;;;;;;;;;5082975;28;20045;-82
2023/05/03 13:41:46;;;;;;;7.47;2.13;;;;;;;;;;5082521;28;20047;-83
2023/05/03 13:44:12;;;;;;;6.03;2.00;;;;;;;;;;5082262;28;20459;-82
2023/05/03 13:46:39;;;;;;;5.88;2.05;;;;;;;;;;5080532;28;20049;-82
2023/05/03 13:49:06;;;;;;;5.40;1.83;;;;;;;;;;5083648;28;20044;-81
2023/05/03 13:51:32;;;;;;;9.65;2.10;;;;;;;;;;5083269;28;20052;-82
2023/05/03 13:53:59;;;;;;;6.18;2.10;;;;;;;;;;5080911;28;20053;-82
2023/05/03 13:56:25;;;;;;;6.97;1.92;;;;;;;;;;5059906;28;20049;-81
2023/05/03 13:58:52;;;;;;;9.10;2.08;;;;;;;;;;5084072;28;20044;-84
2023/05/03 14:01:18;;;;;;;8.18;2.33;;;;;;;;;;5084365;28;20052;-84
2023/05/03 14:03:44;;;;;;;7.00;2.22;;;;;;;;;;5082328;28;20051;-83
2023/05/03 14:06:10;;;;;;;7.60;2.30;;;;;;;;;;5082911;28;20052;-83
2023/05/03 14:08:36;;;;;;;6.93;2.15;;;;;;;;;;5082535;28;20389;-83
2023/05/03 14:11:02;;;;;;;10.02;2.92;;;;;;;;;;5081391;28;20075;-83
2023/05/03 14:13:29;;;;;;;6.57;2.28;;;;;;;;;;5082157;28;20044;-82
2023/05/03 14:15:55;;;;;;;8.73;2.50;;;;;;;;;;5083364;28;20055;-82
2023/05/03 14:18:21;;;;;;;8.43;2.60;;;;;;;;;;5082016;28;20044;-82
2023/05/03 14:20:51;;;;;;;8.90;2.28;;;;;;;;;;5082885;28;20082;-81
2023/05/03 14:23:17;;;;;;;5.60;2.15;;;;;;;;;;5082635;28;20521;-81
2023/05/03 14:25:43;;;;;;;7.28;2.58;;;;;;;;;;5079868;28;20041;-82
2023/05/03 14:28:09;;;;;;;7.22;2.58;;;;;;;;;;5082583;28;20036;-83
2023/05/03 14:30:35;;;;;;;8.02;2.70;;;;;;;;;;5082460;28;20080;-82
2023/05/03 14:33:01;;;;;;;7.07;2.50;;;;;;;;;;5077769;28;20048;-83
2023/05/03 14:35:27;;;;;;;7.32;2.80;;;;;;;;;;5066442;28;20069;-82
2023/05/03 14:37:53;;;;;;;8.20;2.50;;;;;;;;;;5061599;28;20052;-84
2023/05/03 14:40:20;;;;;;;7.72;2.30;;;;;;;;;;5082237;28;20037;-83